Hoppa till innehåll

METAR väder och rapporter - EGLL

Nedan listas information från vald flygplats. Andra METARs finns längre ned på sidan. Kontakta oss om någon saknas eller skriv in egen ICAO-kod.

Coded METAR: 2022/06/26 08:50 EGLL 260850Z AUTO 21016KT 9999 SCT039 18/07 Q1012

Weather Report @ EGLL

Issued: 26th Jun 2022 at 10:50 CEST

Wind: moderate breeze from the South-Southwest (210 degrees) at 16 knots (18 mph, 30 kph, 8 mps, Force 4)
Visibility: 10km or more
Cloud: scattered at 3900 feet
Temperature: 64F / 18C
Dewpoint: 45F / 7C
Humidity: 49%
Pressure: 1012 hPa

Coded TAF: 2022/06/26 06:09 TAF EGLL 260457Z 2606/2712 20011KT 9999 SCT030 PROB30 TEMPO 2609/2616 19015G26KT PROB30 TEMPO 2706/2709 7000 SHRA TEMPO 2709/2712 7000 SHRA PROB30 TEMPO 2709/2712 4000 +SHRA BKN014CB

Weather Forecast @ EGLL

Issued: 26th Jun 2022 at 08:09 CEST

Valid : 26th Jun 08:00 until 27th Jun 14:00 CEST

08:00 CEST
Wind: moderate breeze from the South-Southwest (200 degrees) at 11 knots (13 mph, 20 kph, 6 mps, Force 4)
Visibility: 10km or more
Cloud: scattered at 3000 feet

01:00 CET to 01:00 CET
there is a 30% chance of:


11:00 CEST to 18:00 CEST
Occasional

Wind: moderate breeze from the South (190 degrees) at 15 knots (17 mph, 28 kph, 8 mps, Force 4) gusting to 26 knots (30 mph 48 kph, 13 mps)

01:00 CET to 01:00 CET
there is a 30% chance of:


08:00 CEST to 11:00 CEST
Occasional

Visibility: 7000 metres
Weather: showers of rain

11:00 CEST to 14:00 CEST
Occasional

Visibility: 7000 metres
Weather: showers of rain

01:00 CET to 01:00 CET
there is a 30% chance of:


11:00 CEST to 14:00 CEST
Occasional

Visibility: 4000 metres
Weather: heavy showers of rain
Cloud: broken at 1400 feet with cumulonimbus

Internet delivery of weather data is not secure or reliable enough for operational purposes.

NEVER RELY ON THE OUTPUT OF THIS SCRIPT TO MAKE DECISIONS ABOUT ANYTHING IN WHICH THE WEATHER FORECAST AND ITS INTERPRETATION COULD BE AN ISSUE OF SAFETY.

Andra intressanta METARs

Klicka på önskad rubrik nedan för att visa nuvarande väder för den platsen.

Avstånd från stationen: NO 27kmESGG - Göteborg (Landvetter)
Uppdaterad: 2022-06-26 10:50
 Vind från varierande
Vind: varierande 4 km/h
Temperatur: 22°C
Daggpunkt: 16°C
Luftfuktighet: 69%
Barometer: 1016 hPa
Moln: Delvis molnigt
Sikt: 10 km
Molninformation: Delvis molnigt 1067 m
2022/06/26 08:50 ESGG 260850Z VRB02KT 9999 SCT035CB 22/16 Q1016
Delvis molnigt
Delvis molnigt
  Visa detaljer för Göteborg (Landvetter)
Avstånd från stationen: N 28kmESGP - Göteborg (Säve)
Uppdaterad: 2022-06-26 10:50
 Vind från varierande
Vind: varierande 2 km/h
Temperatur: 18°C
Daggpunkt: 17°C
Luftfuktighet: 94%
Barometer: 1016 hPa
Summering: Lätt regn, Showers
Moln: Övervägande molnigt
Sikt: 10 km
Molninformation: Delvis molnigt 640 m
Övervägande molnigt 2073 m
2022/06/26 08:50 ESGP 260850Z VRB01KT 9999 -SHRA SCT021CB BKN068 18/17 Q1016
Lätt regn, Showers, Övervägande molnigt
Lätt regn
Showers
Övervägande molnigt
  Visa detaljer för Göteborg (Säve)
Avstånd från stationen: NO 419kmESSA - Stockholm (Arlanda)
Uppdaterad: 2022-06-26 10:50
 Vind från SSO
Vind: SSO 9 km/h
Temperatur: 26°C
Daggpunkt: 13°C
Luftfuktighet: 45%
Barometer: 1019 hPa
Summering: Klart
Sikt: mer än 10 km
2022/06/26 08:50 ESSA 260850Z 16005KT 120V220 CAVOK 26/13 Q1019 NOSIG
Klart
Klart
  Visa detaljer för Stockholm (Arlanda)
Avstånd från stationen: ONO 404kmESSB - Stockholm (Bromma)
Uppdaterad: 2022-06-26 10:50
 Vind från O
Vind: O 9 km/h
Temperatur: 27°C
Värmeindex: 27°C
Daggpunkt: 14°C
Luftfuktighet: 45%
Barometer: 1019 hPa
Moln: Klart
Sikt: 10 km
2022/06/26 08:50 ESSB 260850Z AUTO 09005KT 050V140 9999 NCD 27/14 Q1019
Klart
Klart
  Visa detaljer för Stockholm (Bromma)
Avstånd från stationen: ONO 323kmESKN - Stockholm (Skavsta)
Uppdaterad: 2022-06-26 10:50
 Vind från OSO
Vind: OSO 15 km/h
Temperatur: 26°C
Daggpunkt: 13°C
Luftfuktighet: 45%
Barometer: 1019 hPa
Summering: Klart
Sikt: mer än 10 km
2022/06/26 08:50 ESKN 260850Z 12008KT CAVOK 26/13 Q1019
Klart
Klart
  Visa detaljer för Stockholm (Skavsta)
Avstånd från stationen: SSO 238kmESMS - Malmö flygplats (Sturup)
Uppdaterad: 2022-06-26 10:50
 Vind från SSO
Vind: SSO 13 km/h
Temperatur: 24°C
Daggpunkt: 17°C
Luftfuktighet: 65%
Barometer: 1015 hPa
Summering: Klart
Sikt: mer än 10 km
2022/06/26 08:50 ESMS 260850Z 15007KT CAVOK 24/17 Q1015
Klart
Klart
  Visa detaljer för Malmö flygplats (Sturup)
Avstånd från stationen: O 382kmESSV - Visby flygplats
Uppdaterad: 2022-06-26 10:50
 Vind från SO
Vind: SO 15 km/h
Temperatur: 28°C
Värmeindex: 28°C
Daggpunkt: 15°C
Luftfuktighet: 45%
Barometer: 1019 hPa
Summering: Klart
Sikt: mer än 10 km
2022/06/26 08:50 ESSV 260850Z 14008KT 110V170 CAVOK 28/15 Q1019
Klart
Klart
  Visa detaljer för Visby flygplats
Avstånd från stationen: NNO 92kmESGT - Trollhättan
Uppdaterad: 2022-06-26 10:50
 Vind från NV
Vind: NV 13 km/h
Temperatur: 22°C
Daggpunkt: 16°C
Luftfuktighet: 69%
Barometer: 1016 hPa
Moln: Genommulet
Sikt: 10 km
Molninformation: Genommulet 2682 m
2022/06/26 08:50 ESGT 260850Z AUTO 32007KT 9999 OVC088/// 22/16 Q1016
Genommulet
Genommulet
  Visa detaljer för Trollhättan
Avstånd från stationen: ONO 129kmESGJ - Jönköpings flygplats
Uppdaterad: 2022-06-26 10:50
 Vind från O
Vind: O 11 km/h
Temperatur: 26°C
Daggpunkt: 16°C
Luftfuktighet: 54%
Barometer: 1017 hPa
Moln: Klart
Sikt: 10 km
2022/06/26 08:50 ESGJ 260850Z AUTO 10006KT 9999 NCD 26/16 Q1017
Klart
Klart
  Visa detaljer för Jönköpings flygplats
Avstånd från stationen: NNO 229kmESOK - Karlstad
Uppdaterad: 2022-06-26 10:50
 Vind från O
Vind: O 13 km/h
Temperatur: 26°C
Daggpunkt: 10°C
Luftfuktighet: 37%
Barometer: 1018 hPa
Moln: Klart
Sikt: 10 km
2022/06/26 08:50 ESOK 260850Z AUTO 10007KT 9999 NCD 26/10 Q1018
Klart
Klart
  Visa detaljer för Karlstad
Avstånd från stationen: N 643kmESNZ - Östersund (Frösön)
Uppdaterad: 2022-06-26 10:50
 Vind från S
Vind: S 7 km/h
Temperatur: 26°C
Daggpunkt: 12°C
Luftfuktighet: 42%
Barometer: 1018 hPa
Moln: Klart
Sikt: 10 km
2022/06/26 08:50 ESNZ 260850Z AUTO 17004KT 140V210 9999 NCD 26/12 Q1018
Klart
Klart
  Visa detaljer för Östersund (Frösön)
Avstånd från stationen: SSO 216kmEKCH - Köpenhamn (Kastrup)
Uppdaterad: 2022-06-26 10:50
 Vind från SO
Vind: SO 15 km/h
Temperatur: 24°C
Daggpunkt: 18°C
Luftfuktighet: 69%
Barometer: 1015 hPa
Moln: Några få moln
Sikt: 10 km
Molninformation: Några få moln 3048 m
2022/06/26 08:50 EKCH 260850Z AUTO 14008KT 9999 FEW100/// 24/18 Q1015 NOSIG
Några få moln
Några få moln
  Visa detaljer för Köpenhamn (Kastrup)
Avstånd från stationen: SV 263kmEKBI - Billund Airport
Uppdaterad: 2022-06-26 10:50
 Vind från OSO
Vind: OSO 19 km/h
Temperatur: 24°C
Daggpunkt: 17°C
Luftfuktighet: 65%
Barometer: 1013 hPa
Moln: Klart
Sikt: 10 km
2022/06/26 08:50 EKBI 260850Z AUTO 12010KT 100V160 9999 NCD 24/17 Q1013
Klart
Klart
  Visa detaljer för Billund Airport
Avstånd från stationen: N 302kmENGM - Oslo (Gardermoen)
Uppdaterad: 2022-06-26 10:50
 Vind från O
Vind: O 7 km/h
Temperatur: 21°C
Daggpunkt: 16°C
Luftfuktighet: 73%
Barometer: 1017 hPa
Moln: Övervägande molnigt
Sikt: 10 km
Molninformation: Några få moln 1158 m
Övervägande molnigt 2347 m
2022/06/26 08:50 ENGM 260850Z 09004KT 9999 FEW038 BKN077 21/16 Q1017 NOSIG
Övervägande molnigt
Övervägande molnigt
  Visa detaljer för Oslo (Gardermoen)
Avstånd från stationen: NO 540kmEFMA - Mariehamn / Åland
Uppdaterad: 2022-06-26 10:50
 Vind från SO
Vind: SO 17 km/h
Temperatur: 26°C
Daggpunkt: 15°C
Luftfuktighet: 51%
Barometer: 1020 hPa
Summering: Klart
Sikt: mer än 10 km
2022/06/26 08:50 EFMA 260850Z AUTO 13009KT 100V160 CAVOK 26/15 Q1020
Klart
Klart
  Visa detaljer för Mariehamn / Åland
Avstånd från stationen: S 558kmEDDT - Berlin (Tegel), Germany
Uppdaterad: 2020-11-09 07:50
Ej aktuell
 Vind från O
Vind: O 11 km/h
Temperatur: 6°C
Vindavkylning: 4°C
Daggpunkt: 5°C
Luftfuktighet: 93%
Barometer: 1027 hPa
Summering: Dimmigt
Moln: Genommulet
Sikt: 3 km
Molninformation: Genommulet 91 m
2020/11/09 06:50 EDDT 090650Z 09006KT 050V120 3000 BR OVC003 06/05 Q1027
Dimmigt, Genommulet
Dimmigt
Genommulet
  Visa detaljer för Berlin (Tegel), Germany
Avstånd från stationen: SV 737kmEHAM - Amsterdam (Schiphol)
Uppdaterad: 2022-06-26 10:55
 Vind från S
Vind: S 11 km/h
Temperatur: 18°C
Daggpunkt: 13°C
Luftfuktighet: 73%
Barometer: 1015 hPa
Moln: Några få moln
Sikt: 10 km
Molninformation: Några få moln 518 m
2022/06/26 08:55 EHAM 260855Z 18006KT 140V230 9999 FEW017 18/13 Q1015 NOSIG
Några få moln
Några få moln
  Visa detaljer för Amsterdam (Schiphol)
Avstånd från stationen: ONO 808kmEFHK - Helsingfors (Vantaa)
Uppdaterad: 2022-06-26 10:50
 Vind från SV
Vind: SV 11 km/h
Temperatur: 28°C
Värmeindex: 28°C
Daggpunkt: 15°C
Luftfuktighet: 45%
Barometer: 1021 hPa
Summering: Klart
Sikt: mer än 10 km
2022/06/26 08:50 EFHK 260850Z 23006KT 180V300 CAVOK 28/15 Q1021 NOSIG
Klart
Klart
  Visa detaljer för Helsingfors (Vantaa)
Avstånd från stationen: SSV 537kmEDDW - Bremen
Uppdaterad: 2022-06-26 10:50
 Vind från V
Vind: V 19 km/h
Temperatur: 24°C
Daggpunkt: 15°C
Luftfuktighet: 57%
Barometer: 1014 hPa
Moln: Delvis molnigt
Sikt: 10 km
Molninformation: Delvis molnigt 792 m
2022/06/26 08:50 EDDW 260850Z AUTO 27010KT 9999 SCT026 24/15 Q1014 NOSIG
Delvis molnigt
Delvis molnigt
  Visa detaljer för Bremen
Avstånd från stationen: SSV 861kmEDDF - Frankfurt am Main
Uppdaterad: 2022-06-26 10:50
 Vind från SV
Vind: SV 11 km/h
Temperatur: 25°C
Daggpunkt: 14°C
Luftfuktighet: 51%
Barometer: 1015 hPa
Moln: Några få moln
Sikt: 10 km
Molninformation: Några få moln 1219 m
2022/06/26 08:50 EDDF 260850Z 22006KT 190V250 9999 FEW040 25/14 Q1015 NOSIG
Några få moln
Några få moln
  Visa detaljer för Frankfurt am Main
Avstånd från stationen: SV 880kmEBBR - Bryssel international
Uppdaterad: 2022-06-26 10:50
 Vind från SSV
Vind: SSV 9 km/h
Temperatur: 16°C
Daggpunkt: 13°C
Luftfuktighet: 83%
Barometer: 1016 hPa
Moln: Delvis molnigt
Sikt: 10 km
Molninformation: Delvis molnigt 366 m
2022/06/26 08:50 EBBR 260850Z 20005KT 170V230 9999 SCT012 16/13 Q1016 NOSIG
Delvis molnigt
Delvis molnigt
  Visa detaljer för Bryssel international
Avstånd från stationen: SV 738kmEHAM - Amsterdam (Schiphol)
Uppdaterad: 2022-06-26 10:55
 Vind från S
Vind: S 11 km/h
Temperatur: 18°C
Daggpunkt: 13°C
Luftfuktighet: 73%
Barometer: 1015 hPa
Moln: Några få moln
Sikt: 10 km
Molninformation: Några få moln 518 m
2022/06/26 08:55 EHAM 260855Z 18006KT 140V230 9999 FEW017 18/13 Q1015 NOSIG
Några få moln
Några få moln
  Visa detaljer för Amsterdam (Schiphol)
Avstånd från stationen: SV 1044kmEGLL - London (Heathrow)
Uppdaterad: 2022-06-26 10:50
 Vind från SSV
Vind: SSV 30 km/h
Temperatur: 18°C
Daggpunkt: 7°C
Luftfuktighet: 49%
Barometer: 1012 hPa
Moln: Delvis molnigt
Sikt: 10 km
Molninformation: Delvis molnigt 1189 m
2022/06/26 08:50 EGLL 260850Z AUTO 21016KT 9999 SCT039 18/07 Q1012
Delvis molnigt
Delvis molnigt
  Visa detaljer för London (Heathrow)
Avstånd från stationen: SV 1132kmLFPG - Paris (Charles de Gaulle)
Uppdaterad: 2022-06-26 11:00
 Vind från SV
Vind: SV 6 km/h
Temperatur: 18°C
Daggpunkt: 9°C
Luftfuktighet: 56%
Barometer: 1016 hPa
Moln: Övervägande molnigt
Sikt: 10 km
Molninformation: Några få moln 914 m
Övervägande molnigt 2012 m
Övervägande molnigt 7010 m
2022/06/26 09:00 LFPG 260900Z 22003KT 120V290 9999 FEW030 BKN066 BKN230 18/09 Q1016 NOSIG
Övervägande molnigt
Övervägande molnigt
  Visa detaljer för Paris (Charles de Gaulle)
Avstånd från stationen: SSV 1142kmLSZH - Zürich Airport
Uppdaterad: 2022-06-26 10:50
 Vind från NNV
Vind: NNV 7 km/h
Temperatur: 22°C
Daggpunkt: 15°C
Luftfuktighet: 65%
Barometer: 1016 hPa
Moln: Några få moln
Sikt: 10 km
Molninformation: Några få moln 610 m
2022/06/26 08:50 LSZH 260850Z 33004KT 260V020 9999 FEW020 22/15 Q1016 NOSIG
Några få moln
Några få moln
  Visa detaljer för Zürich Airport
Avstånd från stationen: S 1749kmLIRF - Rome Airport (Fiumicino - Leonardo da Vinci)
Uppdaterad: 2022-06-26 10:50
 Vind från S
Vind: S 13 km/h
Temperatur: 32°C
Värmeindex: 33°C
Daggpunkt: 17°C
Luftfuktighet: 41%
Barometer: 1014 hPa
Summering: Klart
Sikt: mer än 10 km
2022/06/26 08:50 LIRF 260850Z 19007KT 160V220 CAVOK 32/17 Q1014 NOSIG
Klart
Klart
  Visa detaljer för Rome Airport (Fiumicino - Leonardo da Vinci)
Avstånd från stationen: SO 2679kmLTAI - Antalya
Uppdaterad: 2022-06-26 10:50
 Vind från N
Vind: N 19 km/h
Temperatur: 32°C
Daggpunkt: 10°C
Luftfuktighet: 26%
Barometer: 1008 hPa
Moln: Några få moln
Sikt: 10 km
Molninformation: Några få moln 914 m
2022/06/26 08:50 LTAI 260850Z 35010KT 320V030 9999 FEW030 32/10 Q1008 NOSIG
Några få moln
Några få moln
  Visa detaljer för Antalya
Avstånd från stationen: VSV 6074kmKJFK - New Your (JFK)
Uppdaterad: 2022-06-26 10:51
 Vind från SSV
Vind: SSV 11 km/h
Temperatur: 20°C
Daggpunkt: 18°C
Luftfuktighet: 88%
Barometer: 1020 hPa
Moln: Några få moln
Sikt: 16 km
Molninformation: Några få moln 7620 m
2022/06/26 08:51 KJFK 260851Z 20006KT 10SM FEW250 20/18 A3012 RMK AO2 SLP197 T02000183 55000 $
Några få moln
Några få moln
  Visa detaljer för New Your (JFK)
Avstånd från stationen: VSV 8848kmKLAX - Los Angeles International Airport
Uppdaterad: 2022-06-26 10:53
 Vind från V
Vind: V 6 km/h
Temperatur: 17°C
Daggpunkt: 15°C
Luftfuktighet: 88%
Barometer: 1014.2 hPa
Summering: Dimmigt
Moln: Övervägande molnigt
Sikt: 10 km
Molninformation: Delvis molnigt 91 m
Övervägande molnigt 213 m
2022/06/26 08:53 KLAX 260853Z 27003KT 6SM BR SCT003 BKN007 17/15 A2995 RMK AO2 SLP141 VIS W 2 T01720150 55001
Dimmigt, Övervägande molnigt
Dimmigt
Övervägande molnigt
  Visa detaljer för Los Angeles International Airport
Avstånd från stationen: SO 4968kmOMDB - Dubai International Airport
Uppdaterad: 2022-06-26 11:00
 Vind från VSV
Vind: VSV 7 km/h
Temperatur: 42°C
Daggpunkt: 24°C
Luftfuktighet: 36%
Barometer: 995 hPa
Summering: Klart
Sikt: mer än 10 km
2022/06/26 09:00 OMDB 260900Z 25004KT 200V320 CAVOK 42/24 Q0995 NOSIG
Klart
Klart
  Visa detaljer för Dubai International Airport
Avstånd från stationen: OSO 8570kmRJTT - Tokyo International Airport
Uppdaterad: 2022-06-26 11:00
 Vind från SSV
Vind: SSV 26 km/h
Temperatur: 29°C
Värmeindex: 32°C
Daggpunkt: 22°C
Luftfuktighet: 66%
Barometer: 1011 hPa
Moln: Några få moln
Sikt: 10 km
Molninformation: Några få moln 914 m
2022/06/26 09:00 RJTT 260900Z 20014KT 9999 FEW030 29/22 Q1011 NOSIG
Några få moln
Några få moln
  Visa detaljer för Tokyo International Airport
Avstånd från stationen: OSO 7125kmZBAA - Peking (Beijing Capital)
Uppdaterad: 2022-06-26 11:00
 Vind från O
Vind: O 7 km/h
Temperatur: 32°C
Värmeindex: 36°C
Daggpunkt: 21°C
Luftfuktighet: 52%
Barometer: 1000 hPa
Summering: Klart
Sikt: mer än 10 km
2022/06/26 09:00 ZBAA 260900Z 09002MPS 050V140 CAVOK 32/21 Q1000 NOSIG
Klart
Klart
  Visa detaljer för Peking (Beijing Capital)
VÄDER KURIOSA -